createdAt,value
2018-09-30T00:01:52.769Z,58.04
2018-09-30T00:04:21.315Z,56.25
2018-09-30T00:06:49.684Z,56.90
2018-09-30T00:09:18.773Z,58.86
2018-09-30T00:11:47.160Z,58.29
2018-09-30T00:14:15.627Z,58.13
2018-09-30T00:16:44.144Z,58.67
2018-09-30T00:19:12.547Z,57.45
2018-09-30T00:21:40.887Z,57.87
2018-09-30T00:24:14.455Z,58.58
2018-09-30T00:26:48.004Z,59.30
2018-09-30T00:29:16.369Z,57.34
2018-09-30T00:31:44.729Z,57.90
2018-09-30T00:34:18.300Z,57.69
2018-09-30T00:36:46.716Z,59.49
2018-09-30T00:39:15.124Z,58.25
2018-09-30T00:41:43.495Z,59.55
2018-09-30T00:44:11.974Z,58.93
2018-09-30T00:46:40.283Z,58.47
2018-09-30T00:49:08.619Z,59.15
2018-09-30T00:51:36.908Z,58.57
2018-09-30T00:54:05.235Z,59.25
2018-09-30T00:56:33.680Z,59.53
2018-09-30T00:59:02.068Z,58.85
2018-09-30T01:01:30.409Z,57.99
2018-09-30T01:03:58.797Z,58.49
2018-09-30T01:06:27.123Z,58.55
2018-09-30T01:08:55.616Z,58.74
2018-09-30T01:11:23.924Z,56.43
2018-09-30T01:13:52.200Z,57.28
2018-09-30T01:16:20.490Z,56.94
2018-09-30T01:18:48.794Z,57.08
2018-09-30T01:21:17.116Z,56.32
2018-09-30T01:23:45.419Z,56.69
2018-09-30T01:26:13.787Z,56.60
2018-09-30T01:28:42.159Z,57.05
2018-09-30T01:31:10.504Z,56.34
2018-09-30T01:33:38.857Z,56.04
2018-09-30T01:36:07.224Z,57.59
2018-09-30T01:38:35.612Z,56.69
2018-09-30T01:41:04.048Z,56.36
2018-09-30T01:43:32.416Z,55.57
2018-09-30T01:46:00.778Z,55.85
2018-09-30T01:48:29.140Z,55.53
2018-09-30T01:50:57.503Z,55.50
2018-09-30T01:53:25.792Z,55.01
2018-09-30T01:55:54.117Z,55.68
2018-09-30T01:58:22.406Z,54.84
2018-09-30T02:00:50.749Z,56.40
2018-09-30T02:03:19.208Z,55.34
2018-09-30T02:05:47.499Z,54.47
2018-09-30T02:08:15.943Z,54.80
2018-09-30T02:10:44.351Z,56.03
2018-09-30T02:13:12.692Z,54.45
2018-09-30T02:15:41.133Z,54.32
2018-09-30T02:18:09.491Z,55.00
2018-09-30T02:20:37.835Z,54.53
2018-09-30T02:23:06.240Z,56.46
2018-09-30T02:25:34.567Z,54.37
2018-09-30T02:28:02.987Z,53.46
2018-09-30T02:30:31.346Z,53.84
2018-09-30T02:32:59.691Z,53.42
2018-09-30T02:35:28.036Z,53.42
2018-09-30T02:37:56.371Z,52.68
2018-09-30T02:40:24.734Z,53.81
2018-09-30T02:42:53.055Z,53.23
2018-09-30T02:45:21.396Z,53.03
2018-09-30T02:47:49.669Z,52.55
2018-09-30T02:50:17.973Z,52.60
2018-09-30T02:52:46.284Z,54.81
2018-09-30T02:55:14.580Z,55.01
2018-09-30T02:57:42.901Z,53.50
2018-09-30T03:00:29.812Z,52.25
2018-09-30T03:02:58.173Z,52.17
2018-09-30T03:05:26.571Z,52.13
2018-09-30T03:08:00.401Z,50.67
2018-09-30T03:10:28.772Z,49.64
2018-09-30T03:12:57.096Z,49.95
2018-09-30T03:15:25.452Z,50.77
2018-09-30T03:17:53.833Z,51.71
2018-09-30T03:20:22.183Z,52.57
2018-09-30T03:22:50.588Z,51.52
2018-09-30T03:25:18.981Z,51.59
2018-09-30T03:27:47.355Z,51.15
2018-09-30T03:30:15.723Z,51.58
2018-09-30T03:32:44.104Z,50.98
2018-09-30T03:35:12.479Z,51.23
2018-09-30T03:37:40.816Z,51.32
2018-09-30T03:40:09.147Z,51.40
2018-09-30T03:42:37.490Z,52.50
2018-09-30T03:45:05.822Z,52.02
2018-09-30T03:47:34.157Z,51.76
2018-09-30T03:50:02.504Z,51.94
2018-09-30T03:52:30.855Z,51.93
2018-09-30T03:54:59.518Z,52.25
2018-09-30T03:57:27.864Z,53.21
2018-09-30T03:59:56.209Z,53.72
2018-09-30T04:02:24.544Z,52.59
2018-09-30T04:04:52.878Z,53.04
2018-09-30T04:07:21.263Z,52.71
2018-09-30T04:09:49.646Z,54.32
2018-09-30T04:12:17.981Z,52.91
2018-09-30T04:14:46.300Z,53.80
2018-09-30T04:17:14.781Z,53.33
2018-09-30T04:19:43.056Z,53.48
2018-09-30T04:22:11.332Z,53.87
2018-09-30T04:24:39.640Z,53.31
2018-09-30T04:27:07.932Z,53.47
2018-09-30T04:29:36.245Z,54.15
2018-09-30T04:32:04.590Z,53.26
2018-09-30T04:34:32.930Z,53.44
2018-09-30T04:37:01.212Z,53.96
2018-09-30T04:39:29.514Z,53.35
2018-09-30T04:41:57.792Z,54.23
2018-09-30T04:44:26.071Z,54.40
2018-09-30T04:46:54.512Z,53.56
2018-09-30T04:49:22.886Z,55.06
2018-09-30T04:51:51.220Z,54.71
2018-09-30T04:54:19.569Z,54.45
2018-09-30T04:56:47.901Z,54.59
2018-09-30T04:59:16.289Z,55.13
2018-09-30T05:01:44.580Z,54.81
2018-09-30T05:04:12.875Z,54.11
2018-09-30T05:06:41.227Z,54.13
2018-09-30T05:09:09.726Z,55.05
2018-09-30T05:11:38.004Z,53.97
2018-09-30T05:14:06.287Z,52.88
2018-09-30T05:16:34.671Z,52.03
2018-09-30T05:19:02.896Z,53.41
2018-09-30T05:21:31.187Z,51.79
2018-09-30T05:23:59.488Z,51.86
2018-09-30T05:26:27.949Z,51.91
2018-09-30T05:28:56.280Z,51.24
2018-09-30T05:31:24.676Z,54.45
2018-09-30T05:33:53.008Z,52.80
2018-09-30T05:36:21.397Z,52.30
2018-09-30T05:38:49.793Z,51.56
2018-09-30T05:41:18.158Z,51.32
2018-09-30T05:43:46.551Z,52.20
2018-09-30T05:46:14.903Z,51.90
2018-09-30T05:48:43.241Z,51.64
2018-09-30T05:51:11.579Z,51.46
2018-09-30T05:53:39.908Z,51.75
2018-09-30T05:56:08.235Z,51.48
2018-09-30T05:58:36.570Z,49.67
2018-09-30T06:01:04.909Z,49.74
2018-09-30T06:03:33.261Z,49.12
2018-09-30T06:06:01.569Z,49.92
2018-09-30T06:08:30.072Z,49.69
2018-09-30T06:10:58.376Z,50.34
2018-09-30T06:13:26.720Z,49.70
2018-09-30T06:15:55.045Z,49.32
2018-09-30T06:18:23.424Z,47.62
2018-09-30T06:20:51.808Z,47.77
2018-09-30T06:23:20.232Z,45.86
2018-09-30T06:25:48.575Z,45.28
2018-09-30T06:28:16.948Z,45.43
2018-09-30T06:30:45.299Z,43.72
2018-09-30T06:33:13.661Z,38.35
2018-09-30T06:35:42.095Z,34.75
2018-09-30T06:38:10.436Z,33.02
2018-09-30T06:40:38.776Z,29.80
2018-09-30T06:43:07.157Z,27.39
2018-09-30T06:45:35.584Z,25.59
2018-09-30T06:48:03.828Z,25.18
2018-09-30T06:50:32.611Z,25.39
2018-09-30T06:53:01.052Z,22.90
2018-09-30T06:55:29.347Z,21.87
2018-09-30T06:57:57.704Z,21.16
2018-09-30T07:00:26.032Z,19.70
2018-09-30T07:02:54.411Z,20.36
2018-09-30T07:05:22.844Z,21.73
2018-09-30T07:07:51.222Z,22.28
2018-09-30T07:10:19.544Z,23.96
2018-09-30T07:12:47.846Z,24.54
2018-09-30T07:15:16.185Z,25.37
2018-09-30T07:17:44.475Z,28.11
2018-09-30T07:20:12.809Z,30.87
2018-09-30T07:22:41.245Z,30.41
2018-09-30T07:25:09.456Z,31.81
2018-09-30T07:27:37.751Z,31.06
2018-09-30T07:30:06.164Z,31.02
2018-09-30T07:32:34.508Z,32.51
2018-09-30T07:35:02.857Z,32.20
2018-09-30T07:37:31.139Z,32.92
2018-09-30T07:39:59.480Z,32.89
2018-09-30T07:42:27.767Z,33.98
2018-09-30T07:44:56.072Z,34.60
2018-09-30T07:47:24.368Z,34.11
2018-09-30T07:49:52.719Z,34.85
2018-09-30T07:52:21.007Z,35.82
2018-09-30T07:54:49.312Z,36.33
2018-09-30T07:57:17.631Z,35.92
2018-09-30T07:59:45.960Z,36.62
2018-09-30T08:02:14.337Z,35.85
2018-09-30T08:04:42.668Z,35.59
2018-09-30T08:07:11.008Z,34.82
2018-09-30T08:09:39.380Z,35.34
2018-09-30T08:12:07.704Z,33.63
2018-09-30T08:14:36.018Z,31.38
2018-09-30T08:17:04.387Z,29.66
2018-09-30T08:19:32.684Z,27.16
2018-09-30T08:22:01.048Z,24.86
2018-09-30T08:24:29.443Z,24.55
2018-09-30T08:26:57.757Z,22.09
2018-09-30T08:29:26.085Z,21.28
2018-09-30T08:31:54.437Z,20.15
2018-09-30T08:34:22.769Z,21.28
2018-09-30T08:36:51.095Z,21.40
2018-09-30T08:39:19.457Z,21.30
2018-09-30T08:41:47.775Z,20.53
2018-09-30T08:44:16.175Z,20.43
2018-09-30T08:46:44.566Z,20.74
2018-09-30T08:49:19.453Z,20.19
2018-09-30T08:51:47.734Z,19.08
2018-09-30T08:54:16.073Z,17.10
2018-09-30T08:56:44.420Z,17.04
2018-09-30T08:59:12.780Z,17.10
2018-09-30T09:01:41.131Z,15.66
2018-09-30T09:04:09.480Z,15.59
2018-09-30T09:06:37.825Z,15.53
2018-09-30T09:09:09.373Z,16.18
2018-09-30T09:11:37.719Z,16.19
2018-09-30T09:14:06.116Z,17.08
2018-09-30T09:16:34.463Z,16.59
2018-09-30T09:19:02.791Z,17.64
2018-09-30T09:21:31.121Z,16.82
2018-09-30T09:23:59.448Z,17.41
2018-09-30T09:26:27.769Z,16.80
2018-09-30T09:28:56.107Z,16.03
2018-09-30T09:31:24.487Z,16.53
2018-09-30T09:33:52.823Z,17.68
2018-09-30T09:36:21.184Z,16.39
2018-09-30T09:38:49.532Z,16.19
2018-09-30T09:41:17.908Z,17.71
2018-09-30T09:43:46.332Z,17.67
2018-09-30T09:46:14.684Z,16.78
2018-09-30T09:48:42.999Z,18.15
2018-09-30T09:51:12.353Z,17.24
2018-09-30T09:53:40.664Z,16.58
2018-09-30T09:56:08.975Z,17.85
2018-09-30T09:58:37.332Z,17.03
2018-09-30T10:01:06.194Z,15.89
2018-09-30T10:03:34.488Z,14.67
2018-09-30T10:06:02.809Z,16.16
2018-09-30T10:08:31.121Z,15.65
2018-09-30T10:10:59.512Z,15.40
2018-09-30T10:13:27.940Z,15.58
2018-09-30T10:15:56.413Z,13.48
2018-09-30T10:18:24.952Z,15.57
2018-09-30T10:20:53.393Z,16.22
2018-09-30T10:23:21.861Z,16.43
2018-09-30T10:25:50.378Z,16.29
2018-09-30T10:28:18.839Z,16.37
2018-09-30T10:30:47.252Z,15.23
2018-09-30T10:33:15.744Z,16.01
2018-09-30T10:35:44.151Z,16.60
2018-09-30T10:38:12.603Z,15.25
2018-09-30T10:40:41.075Z,15.54
2018-09-30T10:43:09.481Z,17.41
2018-09-30T10:45:37.866Z,17.85
2018-09-30T10:48:06.510Z,20.27
2018-09-30T10:50:34.899Z,21.43
2018-09-30T10:53:03.276Z,22.49
2018-09-30T10:55:31.648Z,22.80
2018-09-30T10:58:00.089Z,21.66
2018-09-30T11:00:28.539Z,22.91
2018-09-30T11:02:56.924Z,23.22
2018-09-30T11:05:25.416Z,24.16
2018-09-30T11:07:53.835Z,22.90
2018-09-30T11:10:22.449Z,24.07
2018-09-30T11:12:50.848Z,23.96
2018-09-30T11:15:20.061Z,23.03
2018-09-30T11:17:48.494Z,21.87
2018-09-30T11:20:17.072Z,19.66
2018-09-30T11:22:45.568Z,18.42
2018-09-30T11:25:14.281Z,17.42
2018-09-30T11:27:42.700Z,16.67
2018-09-30T11:30:11.137Z,16.58
2018-09-30T11:32:39.523Z,16.38
2018-09-30T11:35:07.937Z,16.37
2018-09-30T11:37:36.380Z,14.86
2018-09-30T11:40:05.220Z,14.27
2018-09-30T11:42:33.715Z,13.91
2018-09-30T11:45:02.181Z,14.48
2018-09-30T11:47:30.589Z,14.49
2018-09-30T11:49:58.987Z,13.77
2018-09-30T11:52:27.450Z,13.25
2018-09-30T11:54:55.881Z,12.68
2018-09-30T11:57:24.352Z,14.73
2018-09-30T11:59:52.768Z,13.14
2018-09-30T12:02:21.173Z,14.07
2018-09-30T12:04:49.573Z,13.16
2018-09-30T12:07:17.997Z,12.49
2018-09-30T12:09:46.433Z,12.84
2018-09-30T12:12:14.950Z,11.78
2018-09-30T12:14:43.390Z,13.46
2018-09-30T12:17:11.920Z,12.98
2018-09-30T12:19:40.382Z,14.28
2018-09-30T12:22:08.845Z,12.94
2018-09-30T12:24:37.376Z,13.81
2018-09-30T12:27:05.854Z,12.98
2018-09-30T12:29:34.384Z,13.54
2018-09-30T12:32:02.790Z,13.47
2018-09-30T12:34:31.165Z,14.81
2018-09-30T12:36:59.664Z,19.03
2018-09-30T12:39:28.237Z,19.37
2018-09-30T12:41:56.631Z,20.00
2018-09-30T12:44:25.124Z,20.36
2018-09-30T12:46:53.553Z,20.35
2018-09-30T12:49:21.941Z,21.50
2018-09-30T12:51:50.372Z,21.43
2018-09-30T12:54:18.860Z,22.17
2018-09-30T12:56:47.292Z,21.07
2018-09-30T12:59:15.761Z,22.55
2018-09-30T13:01:44.209Z,21.76
2018-09-30T13:04:12.725Z,21.37
2018-09-30T13:06:41.140Z,23.75
2018-09-30T13:09:10.228Z,23.70
2018-09-30T13:11:38.807Z,24.92
2018-09-30T13:14:07.508Z,24.38
2018-09-30T13:16:36.021Z,24.74
2018-09-30T13:19:04.464Z,24.49
2018-09-30T13:21:32.937Z,24.72
2018-09-30T13:24:01.404Z,24.34
2018-09-30T13:26:29.851Z,24.46
2018-09-30T13:28:58.349Z,23.32
2018-09-30T13:31:26.755Z,23.67
2018-09-30T13:33:55.300Z,24.55
2018-09-30T13:36:23.720Z,25.27
2018-09-30T13:38:52.119Z,24.80
2018-09-30T13:41:20.645Z,25.24
2018-09-30T13:43:49.127Z,24.10
2018-09-30T13:46:17.679Z,25.93
2018-09-30T13:48:46.032Z,25.23
2018-09-30T13:51:14.629Z,24.99
2018-09-30T13:53:42.983Z,25.38
2018-09-30T13:56:11.452Z,26.82
2018-09-30T13:58:39.802Z,26.41
2018-09-30T14:01:08.284Z,26.99
2018-09-30T14:03:36.664Z,25.69
2018-09-30T14:06:05.092Z,26.70
2018-09-30T14:08:33.460Z,27.33
2018-09-30T14:11:01.904Z,27.76
2018-09-30T14:13:30.280Z,26.96
2018-09-30T14:15:58.801Z,27.72
2018-09-30T14:18:27.289Z,27.15
2018-09-30T14:20:55.784Z,27.11
2018-09-30T14:23:24.185Z,26.69
2018-09-30T14:25:52.515Z,26.61
2018-09-30T14:28:20.929Z,26.16
2018-09-30T14:30:49.539Z,25.75
2018-09-30T14:33:18.002Z,24.78
2018-09-30T14:35:46.735Z,25.84
2018-09-30T14:38:15.397Z,24.76
2018-09-30T14:40:43.988Z,25.86
2018-09-30T14:43:12.470Z,25.66
2018-09-30T14:45:40.969Z,25.87
2018-09-30T14:48:09.655Z,25.64
2018-09-30T14:50:38.071Z,26.40
2018-09-30T14:53:06.646Z,24.73
2018-09-30T14:55:35.091Z,25.44
2018-09-30T14:58:03.526Z,25.57
2018-09-30T15:00:32.108Z,25.92
2018-09-30T15:03:00.636Z,26.41
2018-09-30T15:05:29.133Z,26.61
2018-09-30T15:07:57.564Z,26.97
2018-09-30T15:10:26.223Z,26.61
2018-09-30T15:12:54.571Z,25.68
2018-09-30T15:15:23.177Z,26.45
2018-09-30T15:17:51.627Z,26.54
2018-09-30T15:20:20.141Z,25.99
2018-09-30T15:22:48.556Z,25.91
2018-09-30T15:25:17.060Z,25.17
2018-09-30T15:27:45.508Z,25.07
2018-09-30T15:30:14.030Z,27.85
2018-09-30T15:32:42.490Z,29.20
2018-09-30T15:35:10.951Z,32.25
2018-09-30T15:37:39.413Z,30.56
2018-09-30T15:40:07.907Z,30.36
2018-09-30T15:42:36.340Z,31.85
2018-09-30T15:45:04.764Z,32.47
2018-09-30T15:47:33.330Z,33.32
2018-09-30T15:50:01.784Z,33.08
2018-09-30T15:52:30.932Z,33.79
2018-09-30T15:54:59.249Z,33.20
2018-09-30T15:57:27.568Z,32.85
2018-09-30T15:59:56.041Z,34.34
2018-09-30T16:02:24.419Z,34.94
2018-09-30T16:04:52.885Z,33.65
2018-09-30T16:07:21.376Z,33.74
2018-09-30T16:09:49.948Z,33.42
2018-09-30T16:12:18.543Z,32.96
2018-09-30T16:14:46.953Z,34.57
2018-09-30T16:17:15.389Z,33.68
2018-09-30T16:19:43.856Z,35.61
2018-09-30T16:22:12.323Z,36.32
2018-09-30T16:24:40.867Z,37.13
2018-09-30T16:27:09.485Z,37.04
2018-09-30T16:29:37.893Z,38.04
2018-09-30T16:32:06.308Z,38.10
2018-09-30T16:34:34.724Z,38.47
2018-09-30T16:37:03.164Z,38.44
2018-09-30T16:39:31.761Z,39.44
2018-09-30T16:42:00.173Z,41.09
2018-09-30T16:44:28.621Z,40.52
2018-09-30T16:46:57.089Z,41.13
2018-09-30T16:49:25.567Z,41.68
2018-09-30T16:51:53.978Z,42.65
2018-09-30T16:54:22.422Z,43.42
2018-09-30T16:56:50.926Z,43.26
2018-09-30T16:59:19.363Z,44.10
2018-09-30T17:01:47.855Z,44.13
2018-09-30T17:04:16.435Z,44.58
2018-09-30T17:06:45.201Z,46.18
2018-09-30T17:09:13.705Z,47.48
2018-09-30T17:11:42.403Z,46.19
2018-09-30T17:14:10.892Z,46.90
2018-09-30T17:17:16.129Z,46.82
2018-09-30T17:19:44.560Z,45.18
2018-09-30T17:22:13.416Z,46.47
2018-09-30T17:24:41.908Z,45.99
2018-09-30T17:27:10.705Z,44.85
2018-09-30T17:29:39.263Z,43.90
2018-09-30T17:32:08.065Z,44.83
2018-09-30T17:34:36.565Z,44.34
2018-09-30T17:37:05.118Z,45.21
2018-09-30T17:39:34.600Z,45.50
2018-09-30T17:42:03.104Z,46.41
2018-09-30T17:44:31.536Z,47.37
2018-09-30T17:46:59.977Z,46.70
2018-09-30T17:49:28.381Z,47.04
2018-09-30T17:51:58.928Z,47.09
2018-09-30T17:54:27.368Z,46.93
2018-09-30T17:56:56.345Z,48.11
2018-09-30T17:59:24.831Z,48.87
2018-09-30T18:01:53.257Z,48.14
2018-09-30T18:04:21.693Z,47.59
2018-09-30T18:06:50.188Z,48.57
2018-09-30T18:09:18.622Z,48.74
2018-09-30T18:11:47.080Z,48.52
2018-09-30T18:14:15.676Z,49.49
2018-09-30T18:16:47.456Z,49.41
2018-09-30T18:19:15.928Z,49.42
2018-09-30T18:21:44.434Z,49.40
2018-09-30T18:24:13.047Z,51.12
2018-09-30T18:26:41.508Z,51.01
2018-09-30T18:29:09.954Z,50.21
2018-09-30T18:31:38.496Z,50.66
2018-09-30T18:34:06.895Z,51.09
2018-09-30T18:36:35.307Z,50.49
2018-09-30T18:39:04.680Z,50.86
2018-09-30T18:41:33.098Z,50.68
2018-09-30T18:44:01.524Z,51.47
2018-09-30T18:46:29.976Z,50.92
2018-09-30T18:48:58.380Z,50.76
2018-09-30T18:51:26.823Z,50.85
2018-09-30T18:53:55.288Z,50.50
2018-09-30T18:56:23.760Z,50.63
2018-09-30T18:58:52.164Z,51.03
2018-09-30T19:01:20.591Z,51.29
2018-09-30T19:03:49.100Z,50.62
2018-09-30T19:06:17.760Z,50.19
2018-09-30T19:08:46.260Z,51.09
2018-09-30T19:11:14.798Z,50.88
2018-09-30T19:13:43.227Z,51.60
2018-09-30T19:16:11.787Z,50.66
2018-09-30T19:18:40.168Z,51.64
2018-09-30T19:21:08.641Z,51.16
2018-09-30T19:23:37.075Z,51.04
2018-09-30T19:26:05.514Z,52.13
2018-09-30T19:28:34.120Z,52.08
2018-09-30T19:31:02.560Z,52.01
2018-09-30T19:33:30.960Z,51.30
2018-09-30T19:35:59.431Z,50.53
2018-09-30T19:38:27.924Z,51.12
2018-09-30T19:40:56.277Z,52.29
2018-09-30T19:43:24.692Z,52.46
2018-09-30T19:45:53.176Z,53.94
2018-09-30T19:48:21.749Z,52.28
2018-09-30T19:50:50.096Z,51.97
2018-09-30T19:53:18.555Z,53.48
2018-09-30T19:55:46.960Z,52.63
2018-09-30T19:58:15.451Z,52.38
2018-09-30T20:00:43.871Z,54.02
2018-09-30T20:03:12.364Z,52.88
2018-09-30T20:05:47.738Z,54.53
2018-09-30T20:08:16.331Z,54.01
2018-09-30T20:10:44.617Z,53.18
2018-09-30T20:13:13.084Z,53.72
2018-09-30T20:15:41.576Z,54.39
2018-09-30T20:18:09.996Z,54.58
2018-09-30T20:20:38.481Z,53.87
2018-09-30T20:23:06.912Z,54.24
2018-09-30T20:25:35.320Z,54.09
2018-09-30T20:28:03.751Z,54.93
2018-09-30T20:30:32.160Z,54.27
2018-09-30T20:33:00.580Z,54.54
2018-09-30T20:35:28.979Z,54.35
2018-09-30T20:37:57.556Z,54.69
2018-09-30T20:40:26.052Z,54.19
2018-09-30T20:42:54.451Z,56.98
2018-09-30T20:45:22.902Z,55.16
2018-09-30T20:47:51.324Z,55.47
2018-09-30T20:50:19.751Z,54.39
2018-09-30T20:52:48.156Z,54.47
2018-09-30T20:55:16.581Z,55.09
2018-09-30T20:57:45.035Z,56.80
2018-09-30T21:00:13.605Z,54.68
2018-09-30T21:02:41.975Z,56.86
2018-09-30T21:05:23.793Z,56.26
2018-09-30T21:07:52.288Z,55.45
2018-09-30T21:10:20.841Z,55.26
2018-09-30T21:12:49.261Z,55.60
2018-09-30T21:15:17.608Z,55.42
2018-09-30T21:17:46.032Z,53.85
2018-09-30T21:20:14.705Z,53.96
2018-09-30T21:22:43.116Z,55.08
2018-09-30T21:25:11.544Z,55.41
2018-09-30T21:27:39.952Z,54.74
2018-09-30T21:30:08.436Z,56.14
2018-09-30T21:32:36.884Z,55.71
2018-09-30T21:35:05.267Z,55.44
2018-09-30T21:37:33.732Z,54.50
2018-09-30T21:40:02.359Z,54.13
2018-09-30T21:42:30.704Z,54.76
2018-09-30T21:44:59.087Z,56.20
2018-09-30T21:47:27.445Z,56.71
2018-09-30T21:49:55.896Z,55.14
2018-09-30T21:52:24.300Z,55.83
2018-09-30T21:54:52.756Z,55.40
2018-09-30T21:57:21.221Z,54.05
2018-09-30T21:59:49.669Z,54.94
2018-09-30T22:02:18.080Z,55.24
2018-09-30T22:04:46.484Z,55.39
2018-09-30T22:07:14.888Z,54.76
2018-09-30T22:09:43.324Z,53.87
2018-09-30T22:12:11.726Z,54.98
2018-09-30T22:14:40.066Z,55.69
2018-09-30T22:17:08.472Z,55.79
2018-09-30T22:19:36.827Z,56.85
2018-09-30T22:22:05.240Z,57.28
2018-09-30T22:24:33.622Z,57.01
2018-09-30T22:27:02.027Z,55.34
2018-09-30T22:29:30.332Z,55.67
2018-09-30T22:31:58.720Z,55.91
2018-09-30T22:34:27.104Z,56.75
2018-09-30T22:36:55.644Z,56.69
2018-09-30T22:39:24.042Z,57.09
2018-09-30T22:41:52.519Z,57.07
2018-09-30T22:44:20.981Z,55.88
2018-09-30T22:46:49.360Z,56.77
2018-09-30T22:49:17.745Z,56.95
2018-09-30T22:51:46.068Z,56.48
2018-09-30T22:54:14.397Z,57.83
2018-09-30T22:56:42.741Z,57.40
2018-09-30T22:59:11.110Z,57.35
2018-09-30T23:01:39.509Z,57.78
2018-09-30T23:04:07.853Z,57.51
2018-09-30T23:06:36.281Z,57.34
2018-09-30T23:09:06.076Z,56.54
2018-09-30T23:11:34.545Z,56.64
2018-09-30T23:14:02.864Z,57.66
2018-09-30T23:16:31.301Z,56.21
2018-09-30T23:18:59.687Z,56.68
2018-09-30T23:21:28.237Z,57.13
2018-09-30T23:23:56.548Z,56.69
2018-09-30T23:26:24.902Z,56.51
2018-09-30T23:28:53.327Z,58.02
2018-09-30T23:31:21.673Z,56.61
2018-09-30T23:33:50.240Z,57.71
2018-09-30T23:36:18.584Z,59.69
2018-09-30T23:38:47.068Z,58.58
2018-09-30T23:41:15.406Z,58.05
2018-09-30T23:43:43.747Z,56.78
2018-09-30T23:46:12.126Z,57.76
2018-09-30T23:48:40.537Z,58.96
2018-09-30T23:51:08.889Z,58.76
2018-09-30T23:56:20.475Z,57.12
2018-09-30T23:58:49.180Z,57.23
